sensor_id;sensor_type;location;lat;lon;timestamp;temperature;humidity
35246;DHT22;21379;50.962;6.960;2023-03-11T00:01:09;2.30;99.90
35246;DHT22;21379;50.962;6.960;2023-03-11T00:03:37;2.20;99.90
35246;DHT22;21379;50.962;6.960;2023-03-11T00:06:04;2.20;99.90
35246;DHT22;21379;50.962;6.960;2023-03-11T00:08:32;2.20;99.90
35246;DHT22;21379;50.962;6.960;2023-03-11T00:10:59;2.20;99.90
35246;DHT22;21379;50.962;6.960;2023-03-11T00:13:27;2.30;99.90
35246;DHT22;21379;50.962;6.960;2023-03-11T00:15:55;2.30;99.90
35246;DHT22;21379;50.962;6.960;2023-03-11T00:18:22;2.30;99.90
35246;DHT22;21379;50.962;6.960;2023-03-11T00:20:53;2.20;99.90
35246;DHT22;21379;50.962;6.960;2023-03-11T00:23:21;2.20;99.90
35246;DHT22;21379;50.962;6.960;2023-03-11T00:25:48;2.20;99.90
35246;DHT22;21379;50.962;6.960;2023-03-11T00:28:15;2.20;99.90
35246;DHT22;21379;50.962;6.960;2023-03-11T00:30:44;2.20;99.90
35246;DHT22;21379;50.962;6.960;2023-03-11T00:33:12;2.10;99.90
35246;DHT22;21379;50.962;6.960;2023-03-11T00:35:39;2.10;99.90
35246;DHT22;21379;50.962;6.960;2023-03-11T00:38:10;2.00;99.90
35246;DHT22;21379;50.962;6.960;2023-03-11T00:40:38;2.00;99.90
35246;DHT22;21379;50.962;6.960;2023-03-11T00:43:05;2.00;99.90
35246;DHT22;21379;50.962;6.960;2023-03-11T00:45:32;2.00;99.90
35246;DHT22;21379;50.962;6.960;2023-03-11T00:47:59;2.10;99.90
35246;DHT22;21379;50.962;6.960;2023-03-11T00:50:28;2.10;99.90
35246;DHT22;21379;50.962;6.960;2023-03-11T00:52:56;2.10;99.90
35246;DHT22;21379;50.962;6.960;2023-03-11T00:55:26;2.10;99.90
35246;DHT22;21379;50.962;6.960;2023-03-11T00:57:54;2.10;99.90
35246;DHT22;21379;50.962;6.960;2023-03-11T01:00:22;2.10;99.90
35246;DHT22;21379;50.962;6.960;2023-03-11T01:02:50;2.10;99.90
35246;DHT22;21379;50.962;6.960;2023-03-11T01:05:18;2.00;99.90
35246;DHT22;21379;50.962;6.960;2023-03-11T01:07:45;2.10;99.90
35246;DHT22;21379;50.962;6.960;2023-03-11T01:10:12;2.00;99.90
35246;DHT22;21379;50.962;6.960;2023-03-11T01:12:40;2.00;99.90
35246;DHT22;21379;50.962;6.960;2023-03-11T01:15:10;2.00;99.90
35246;DHT22;21379;50.962;6.960;2023-03-11T01:17:40;2.10;99.90
35246;DHT22;21379;50.962;6.960;2023-03-11T01:20:08;2.10;99.90
35246;DHT22;21379;50.962;6.960;2023-03-11T01:22:36;2.10;99.90
35246;DHT22;21379;50.962;6.960;2023-03-11T01:25:03;2.10;99.90
35246;DHT22;21379;50.962;6.960;2023-03-11T01:27:30;2.10;99.90
35246;DHT22;21379;50.962;6.960;2023-03-11T01:29:58;2.10;99.90
35246;DHT22;21379;50.962;6.960;2023-03-11T01:32:25;2.10;99.90
35246;DHT22;21379;50.962;6.960;2023-03-11T01:34:52;2.10;99.90
35246;DHT22;21379;50.962;6.960;2023-03-11T01:37:19;2.10;99.90
35246;DHT22;21379;50.962;6.960;2023-03-11T01:39:46;2.10;99.90
35246;DHT22;21379;50.962;6.960;2023-03-11T01:42:13;2.20;99.90
35246;DHT22;21379;50.962;6.960;2023-03-11T01:44:40;2.10;99.90
35246;DHT22;21379;50.962;6.960;2023-03-11T01:47:36;2.10;99.90
35246;DHT22;21379;50.962;6.960;2023-03-11T01:50:07;2.10;99.90
35246;DHT22;21379;50.962;6.960;2023-03-11T01:52:35;2.10;99.90
35246;DHT22;21379;50.962;6.960;2023-03-11T01:55:03;2.20;99.90
35246;DHT22;21379;50.962;6.960;2023-03-11T01:57:31;2.10;99.90
35246;DHT22;21379;50.962;6.960;2023-03-11T01:59:59;2.10;99.90
35246;DHT22;21379;50.962;6.960;2023-03-11T02:02:33;2.10;99.90
35246;DHT22;21379;50.962;6.960;2023-03-11T02:05:03;2.10;99.90
35246;DHT22;21379;50.962;6.960;2023-03-11T02:07:30;2.00;99.90
35246;DHT22;21379;50.962;6.960;2023-03-11T02:09:57;2.00;99.90
35246;DHT22;21379;50.962;6.960;2023-03-11T02:12:24;2.00;99.90
35246;DHT22;21379;50.962;6.960;2023-03-11T02:14:54;2.00;99.90
35246;DHT22;21379;50.962;6.960;2023-03-11T02:17:21;2.00;99.90
35246;DHT22;21379;50.962;6.960;2023-03-11T02:20:00;2.00;99.90
35246;DHT22;21379;50.962;6.960;2023-03-11T02:22:32;2.10;99.90
35246;DHT22;21379;50.962;6.960;2023-03-11T02:25:02;2.00;99.90
35246;DHT22;21379;50.962;6.960;2023-03-11T02:27:32;2.00;99.90
35246;DHT22;21379;50.962;6.960;2023-03-11T02:30:00;2.00;99.90
35246;DHT22;21379;50.962;6.960;2023-03-11T02:32:28;2.00;99.90
35246;DHT22;21379;50.962;6.960;2023-03-11T02:34:55;2.00;99.90
35246;DHT22;21379;50.962;6.960;2023-03-11T02:37:21;1.90;99.90
35246;DHT22;21379;50.962;6.960;2023-03-11T02:39:50;1.90;99.90
35246;DHT22;21379;50.962;6.960;2023-03-11T02:42:20;1.80;99.90
35246;DHT22;21379;50.962;6.960;2023-03-11T02:44:55;1.80;99.90
35246;DHT22;21379;50.962;6.960;2023-03-11T02:47:24;1.80;99.90
35246;DHT22;21379;50.962;6.960;2023-03-11T02:49:53;1.80;99.90
35246;DHT22;21379;50.962;6.960;2023-03-11T02:52:22;1.80;99.90
35246;DHT22;21379;50.962;6.960;2023-03-11T02:54:50;1.80;99.90
35246;DHT22;21379;50.962;6.960;2023-03-11T02:57:17;1.80;99.90
35246;DHT22;21379;50.962;6.960;2023-03-11T02:59:44;1.80;99.90
35246;DHT22;21379;50.962;6.960;2023-03-11T03:02:12;1.80;99.90
35246;DHT22;21379;50.962;6.960;2023-03-11T03:04:38;1.70;99.90
35246;DHT22;21379;50.962;6.960;2023-03-11T03:07:05;1.70;99.90
35246;DHT22;21379;50.962;6.960;2023-03-11T03:09:32;1.60;99.90
35246;DHT22;21379;50.962;6.960;2023-03-11T03:12:00;1.60;99.90
35246;DHT22;21379;50.962;6.960;2023-03-11T03:14:27;1.60;99.90
35246;DHT22;21379;50.962;6.960;2023-03-11T03:16:54;1.50;99.90
35246;DHT22;21379;50.962;6.960;2023-03-11T03:19:22;1.50;99.90
35246;DHT22;21379;50.962;6.960;2023-03-11T03:21:49;1.40;99.90
35246;DHT22;21379;50.962;6.960;2023-03-11T03:24:15;1.40;99.90
35246;DHT22;21379;50.962;6.960;2023-03-11T03:26:42;1.40;99.90
35246;DHT22;21379;50.962;6.960;2023-03-11T03:29:09;1.30;99.90
35246;DHT22;21379;50.962;6.960;2023-03-11T03:31:37;1.30;99.90
35246;DHT22;21379;50.962;6.960;2023-03-11T03:34:04;1.30;99.90
35246;DHT22;21379;50.962;6.960;2023-03-11T03:36:32;1.30;99.90
35246;DHT22;21379;50.962;6.960;2023-03-11T03:38:59;1.20;99.90
35246;DHT22;21379;50.962;6.960;2023-03-11T03:41:26;1.20;99.90
35246;DHT22;21379;50.962;6.960;2023-03-11T03:43:52;1.10;99.90
35246;DHT22;21379;50.962;6.960;2023-03-11T03:46:21;1.20;99.90
35246;DHT22;21379;50.962;6.960;2023-03-11T03:48:48;1.10;99.90
35246;DHT22;21379;50.962;6.960;2023-03-11T03:51:15;1.00;99.90
35246;DHT22;21379;50.962;6.960;2023-03-11T03:53:43;1.00;99.90
35246;DHT22;21379;50.962;6.960;2023-03-11T03:56:13;0.90;99.90
35246;DHT22;21379;50.962;6.960;2023-03-11T03:58:40;0.90;99.90
35246;DHT22;21379;50.962;6.960;2023-03-11T04:01:08;0.90;99.90
35246;DHT22;21379;50.962;6.960;2023-03-11T04:03:35;0.90;99.90
35246;DHT22;21379;50.962;6.960;2023-03-11T04:06:07;0.90;99.90
35246;DHT22;21379;50.962;6.960;2023-03-11T04:08:34;0.90;99.90
35246;DHT22;21379;50.962;6.960;2023-03-11T04:11:03;0.90;99.90
35246;DHT22;21379;50.962;6.960;2023-03-11T04:13:30;0.90;99.90
35246;DHT22;21379;50.962;6.960;2023-03-11T04:15:56;0.80;99.90
35246;DHT22;21379;50.962;6.960;2023-03-11T04:18:23;0.70;99.90
35246;DHT22;21379;50.962;6.960;2023-03-11T04:20:50;0.80;99.90
35246;DHT22;21379;50.962;6.960;2023-03-11T04:23:17;0.70;99.90
35246;DHT22;21379;50.962;6.960;2023-03-11T04:25:44;0.60;99.90
35246;DHT22;21379;50.962;6.960;2023-03-11T04:28:12;0.70;99.90
35246;DHT22;21379;50.962;6.960;2023-03-11T04:30:39;0.70;99.90
35246;DHT22;21379;50.962;6.960;2023-03-11T04:33:06;0.60;99.90
35246;DHT22;21379;50.962;6.960;2023-03-11T04:35:33;0.70;99.90
35246;DHT22;21379;50.962;6.960;2023-03-11T04:38:00;0.60;99.90
35246;DHT22;21379;50.962;6.960;2023-03-11T04:40:27;0.60;99.90
35246;DHT22;21379;50.962;6.960;2023-03-11T04:42:53;0.60;99.90
35246;DHT22;21379;50.962;6.960;2023-03-11T04:45:22;0.60;99.90
35246;DHT22;21379;50.962;6.960;2023-03-11T04:47:49;0.60;99.90
35246;DHT22;21379;50.962;6.960;2023-03-11T04:50:16;0.60;99.90
35246;DHT22;21379;50.962;6.960;2023-03-11T04:52:43;0.50;99.90
35246;DHT22;21379;50.962;6.960;2023-03-11T04:55:11;0.50;99.90
35246;DHT22;21379;50.962;6.960;2023-03-11T04:57:38;0.50;99.90
35246;DHT22;21379;50.962;6.960;2023-03-11T05:00:06;0.40;99.90
35246;DHT22;21379;50.962;6.960;2023-03-11T05:02:38;0.50;99.90
35246;DHT22;21379;50.962;6.960;2023-03-11T05:05:06;0.40;99.90
35246;DHT22;21379;50.962;6.960;2023-03-11T05:07:33;0.50;99.90
35246;DHT22;21379;50.962;6.960;2023-03-11T05:10:00;0.50;99.90
35246;DHT22;21379;50.962;6.960;2023-03-11T05:12:27;0.50;99.90
35246;DHT22;21379;50.962;6.960;2023-03-11T05:14:54;0.50;99.90
35246;DHT22;21379;50.962;6.960;2023-03-11T05:17:21;0.50;99.90
35246;DHT22;21379;50.962;6.960;2023-03-11T05:19:50;0.60;99.90
35246;DHT22;21379;50.962;6.960;2023-03-11T05:22:18;0.60;99.90
35246;DHT22;21379;50.962;6.960;2023-03-11T05:24:45;0.60;99.90
35246;DHT22;21379;50.962;6.960;2023-03-11T05:27:13;0.50;99.90
35246;DHT22;21379;50.962;6.960;2023-03-11T05:29:42;0.60;99.90
35246;DHT22;21379;50.962;6.960;2023-03-11T05:32:10;0.60;99.90
35246;DHT22;21379;50.962;6.960;2023-03-11T05:34:37;0.60;99.90
35246;DHT22;21379;50.962;6.960;2023-03-11T05:37:05;0.60;99.90
35246;DHT22;21379;50.962;6.960;2023-03-11T05:39:32;0.60;99.90
35246;DHT22;21379;50.962;6.960;2023-03-11T05:41:59;0.60;99.90
35246;DHT22;21379;50.962;6.960;2023-03-11T05:44:26;0.60;99.90
35246;DHT22;21379;50.962;6.960;2023-03-11T05:46:52;0.60;99.90
35246;DHT22;21379;50.962;6.960;2023-03-11T05:49:19;0.50;99.90
35246;DHT22;21379;50.962;6.960;2023-03-11T05:51:46;0.60;99.90
35246;DHT22;21379;50.962;6.960;2023-03-11T05:54:15;0.60;99.90
35246;DHT22;21379;50.962;6.960;2023-03-11T05:56:42;0.60;99.90
35246;DHT22;21379;50.962;6.960;2023-03-11T05:59:11;0.60;99.90
35246;DHT22;21379;50.962;6.960;2023-03-11T06:01:38;0.70;99.90
35246;DHT22;21379;50.962;6.960;2023-03-11T06:04:05;0.60;99.90
35246;DHT22;21379;50.962;6.960;2023-03-11T06:06:32;0.60;99.90
35246;DHT22;21379;50.962;6.960;2023-03-11T06:08:59;0.60;99.90
35246;DHT22;21379;50.962;6.960;2023-03-11T06:11:27;0.70;99.90
35246;DHT22;21379;50.962;6.960;2023-03-11T06:13:56;0.70;99.90
35246;DHT22;21379;50.962;6.960;2023-03-11T06:16:24;0.70;99.90
35246;DHT22;21379;50.962;6.960;2023-03-11T06:18:51;0.70;99.90
35246;DHT22;21379;50.962;6.960;2023-03-11T06:21:21;0.70;99.90
35246;DHT22;21379;50.962;6.960;2023-03-11T06:23:49;0.80;99.90
35246;DHT22;21379;50.962;6.960;2023-03-11T06:26:17;0.80;99.90
35246;DHT22;21379;50.962;6.960;2023-03-11T06:28:47;0.80;99.90
35246;DHT22;21379;50.962;6.960;2023-03-11T06:31:16;1.00;99.90
35246;DHT22;21379;50.962;6.960;2023-03-11T06:33:44;1.10;99.90
35246;DHT22;21379;50.962;6.960;2023-03-11T06:36:13;1.10;99.90
35246;DHT22;21379;50.962;6.960;2023-03-11T06:38:40;1.20;99.90
35246;DHT22;21379;50.962;6.960;2023-03-11T06:41:07;1.30;99.90
35246;DHT22;21379;50.962;6.960;2023-03-11T06:43:35;1.30;99.90
35246;DHT22;21379;50.962;6.960;2023-03-11T06:46:09;1.30;99.90
35246;DHT22;21379;50.962;6.960;2023-03-11T06:48:36;1.40;99.90
35246;DHT22;21379;50.962;6.960;2023-03-11T06:51:03;1.50;99.90
35246;DHT22;21379;50.962;6.960;2023-03-11T06:53:30;1.50;99.90
35246;DHT22;21379;50.962;6.960;2023-03-11T06:55:58;1.40;99.90
35246;DHT22;21379;50.962;6.960;2023-03-11T06:58:26;1.40;99.90
35246;DHT22;21379;50.962;6.960;2023-03-11T07:00:53;1.50;99.90
35246;DHT22;21379;50.962;6.960;2023-03-11T07:03:21;1.50;99.90
35246;DHT22;21379;50.962;6.960;2023-03-11T07:05:50;1.50;99.90
35246;DHT22;21379;50.962;6.960;2023-03-11T07:08:17;1.50;99.90
35246;DHT22;21379;50.962;6.960;2023-03-11T07:10:44;1.60;99.90
35246;DHT22;21379;50.962;6.960;2023-03-11T07:13:12;1.60;99.90
35246;DHT22;21379;50.962;6.960;2023-03-11T07:15:39;1.70;99.90
35246;DHT22;21379;50.962;6.960;2023-03-11T07:18:06;1.80;99.90
35246;DHT22;21379;50.962;6.960;2023-03-11T07:20:34;1.90;99.90
35246;DHT22;21379;50.962;6.960;2023-03-11T07:23:01;2.00;99.90
35246;DHT22;21379;50.962;6.960;2023-03-11T07:25:28;2.10;99.90
35246;DHT22;21379;50.962;6.960;2023-03-11T07:27:55;2.10;99.90
35246;DHT22;21379;50.962;6.960;2023-03-11T07:30:21;2.20;99.90
35246;DHT22;21379;50.962;6.960;2023-03-11T07:32:48;2.40;99.90
35246;DHT22;21379;50.962;6.960;2023-03-11T07:35:15;3.00;99.90
35246;DHT22;21379;50.962;6.960;2023-03-11T07:37:43;3.20;99.90
35246;DHT22;21379;50.962;6.960;2023-03-11T07:40:11;3.10;99.90
35246;DHT22;21379;50.962;6.960;2023-03-11T07:42:38;3.00;99.90
35246;DHT22;21379;50.962;6.960;2023-03-11T07:45:06;2.80;99.90
35246;DHT22;21379;50.962;6.960;2023-03-11T07:47:32;2.80;99.90
35246;DHT22;21379;50.962;6.960;2023-03-11T07:49:59;2.90;99.90
35246;DHT22;21379;50.962;6.960;2023-03-11T07:52:29;3.10;99.90
35246;DHT22;21379;50.962;6.960;2023-03-11T07:54:57;3.30;99.90
35246;DHT22;21379;50.962;6.960;2023-03-11T07:57:24;3.40;99.90
35246;DHT22;21379;50.962;6.960;2023-03-11T07:59:51;3.30;99.90
35246;DHT22;21379;50.962;6.960;2023-03-11T08:02:18;3.20;99.90
35246;DHT22;21379;50.962;6.960;2023-03-11T08:04:44;3.50;99.90
35246;DHT22;21379;50.962;6.960;2023-03-11T08:07:11;3.70;99.90
35246;DHT22;21379;50.962;6.960;2023-03-11T08:09:38;3.80;99.90
35246;DHT22;21379;50.962;6.960;2023-03-11T08:12:07;3.90;99.90
35246;DHT22;21379;50.962;6.960;2023-03-11T08:14:34;3.80;99.90
35246;DHT22;21379;50.962;6.960;2023-03-11T08:17:01;3.50;99.90
35246;DHT22;21379;50.962;6.960;2023-03-11T08:19:29;3.60;99.90
35246;DHT22;21379;50.962;6.960;2023-03-11T08:21:56;3.70;99.90
35246;DHT22;21379;50.962;6.960;2023-03-11T08:24:22;3.70;99.90
35246;DHT22;21379;50.962;6.960;2023-03-11T08:26:49;3.90;99.90
35246;DHT22;21379;50.962;6.960;2023-03-11T08:29:17;4.20;99.90
35246;DHT22;21379;50.962;6.960;2023-03-11T08:31:44;4.50;99.90
35246;DHT22;21379;50.962;6.960;2023-03-11T08:34:11;4.80;99.90
35246;DHT22;21379;50.962;6.960;2023-03-11T08:36:38;4.80;99.90
35246;DHT22;21379;50.962;6.960;2023-03-11T08:39:05;4.80;99.90
35246;DHT22;21379;50.962;6.960;2023-03-11T08:41:32;4.50;99.90
35246;DHT22;21379;50.962;6.960;2023-03-11T08:43:59;4.40;99.90
35246;DHT22;21379;50.962;6.960;2023-03-11T08:46:29;4.50;99.90
35246;DHT22;21379;50.962;6.960;2023-03-11T08:48:56;4.50;99.90
35246;DHT22;21379;50.962;6.960;2023-03-11T08:51:24;5.10;99.90
35246;DHT22;21379;50.962;6.960;2023-03-11T08:53:52;4.80;99.90
35246;DHT22;21379;50.962;6.960;2023-03-11T08:56:19;5.00;99.90
35246;DHT22;21379;50.962;6.960;2023-03-11T08:58:46;5.60;99.90
35246;DHT22;21379;50.962;6.960;2023-03-11T09:01:13;5.60;99.90
35246;DHT22;21379;50.962;6.960;2023-03-11T09:03:41;5.70;99.90
35246;DHT22;21379;50.962;6.960;2023-03-11T09:06:11;5.60;99.90
35246;DHT22;21379;50.962;6.960;2023-03-11T09:08:39;5.40;99.90
35246;DHT22;21379;50.962;6.960;2023-03-11T09:11:06;5.70;99.90
35246;DHT22;21379;50.962;6.960;2023-03-11T09:13:33;5.40;99.90
35246;DHT22;21379;50.962;6.960;2023-03-11T09:16:00;5.50;99.90
35246;DHT22;21379;50.962;6.960;2023-03-11T09:18:30;5.90;99.90
35246;DHT22;21379;50.962;6.960;2023-03-11T09:20:59;6.20;99.90
35246;DHT22;21379;50.962;6.960;2023-03-11T09:23:25;5.50;99.90
35246;DHT22;21379;50.962;6.960;2023-03-11T09:25:52;5.10;99.90
35246;DHT22;21379;50.962;6.960;2023-03-11T09:28:19;5.30;99.90
35246;DHT22;21379;50.962;6.960;2023-03-11T09:30:46;4.90;99.90
35246;DHT22;21379;50.962;6.960;2023-03-11T09:33:13;5.90;99.90
35246;DHT22;21379;50.962;6.960;2023-03-11T09:35:40;5.70;99.90
35246;DHT22;21379;50.962;6.960;2023-03-11T09:38:08;5.80;99.90
35246;DHT22;21379;50.962;6.960;2023-03-11T09:40:44;5.60;99.90
35246;DHT22;21379;50.962;6.960;2023-03-11T09:43:24;5.30;99.90
35246;DHT22;21379;50.962;6.960;2023-03-11T09:46:00;5.30;99.90
35246;DHT22;21379;50.962;6.960;2023-03-11T09:48:35;5.50;99.90
35246;DHT22;21379;50.962;6.960;2023-03-11T09:51:08;5.40;99.90
35246;DHT22;21379;50.962;6.960;2023-03-11T09:53:41;5.70;99.90
35246;DHT22;21379;50.962;6.960;2023-03-11T09:56:10;6.70;99.90
35246;DHT22;21379;50.962;6.960;2023-03-11T09:58:41;7.00;99.90
35246;DHT22;21379;50.962;6.960;2023-03-11T10:01:15;7.80;99.90
35246;DHT22;21379;50.962;6.960;2023-03-11T10:03:43;6.40;99.90
35246;DHT22;21379;50.962;6.960;2023-03-11T10:06:14;6.70;99.90
35246;DHT22;21379;50.962;6.960;2023-03-11T10:08:45;6.80;99.90
35246;DHT22;21379;50.962;6.960;2023-03-11T10:11:23;7.00;99.90
35246;DHT22;21379;50.962;6.960;2023-03-11T10:13:59;6.90;99.90
35246;DHT22;21379;50.962;6.960;2023-03-11T10:16:32;7.80;99.90
35246;DHT22;21379;50.962;6.960;2023-03-11T10:19:10;7.90;99.90
35246;DHT22;21379;50.962;6.960;2023-03-11T10:21:46;7.70;99.90
35246;DHT22;21379;50.962;6.960;2023-03-11T10:24:38;8.00;99.90
35246;DHT22;21379;50.962;6.960;2023-03-11T10:27:09;8.30;99.90
35246;DHT22;21379;50.962;6.960;2023-03-11T10:29:46;8.40;99.90
35246;DHT22;21379;50.962;6.960;2023-03-11T10:32:17;8.50;99.90
35246;DHT22;21379;50.962;6.960;2023-03-11T10:34:49;8.80;99.90
35246;DHT22;21379;50.962;6.960;2023-03-11T10:37:22;7.10;99.90
35246;DHT22;21379;50.962;6.960;2023-03-11T10:39:51;6.20;99.90
35246;DHT22;21379;50.962;6.960;2023-03-11T10:42:21;6.00;99.90
35246;DHT22;21379;50.962;6.960;2023-03-11T10:44:49;6.50;99.90
35246;DHT22;21379;50.962;6.960;2023-03-11T10:47:18;6.40;99.90
35246;DHT22;21379;50.962;6.960;2023-03-11T10:49:45;6.10;99.90
35246;DHT22;21379;50.962;6.960;2023-03-11T10:52:12;6.70;99.90
35246;DHT22;21379;50.962;6.960;2023-03-11T10:54:41;7.00;99.90
35246;DHT22;21379;50.962;6.960;2023-03-11T10:57:23;7.00;99.90
35246;DHT22;21379;50.962;6.960;2023-03-11T10:59:51;7.50;99.90
35246;DHT22;21379;50.962;6.960;2023-03-11T11:02:22;6.80;99.90
35246;DHT22;21379;50.962;6.960;2023-03-11T11:05:03;7.30;99.90
35246;DHT22;21379;50.962;6.960;2023-03-11T11:07:32;6.90;99.90
35246;DHT22;21379;50.962;6.960;2023-03-11T11:10:15;7.30;99.90
35246;DHT22;21379;50.962;6.960;2023-03-11T11:12:55;7.10;99.90
35246;DHT22;21379;50.962;6.960;2023-03-11T11:15:27;7.00;99.90
35246;DHT22;21379;50.962;6.960;2023-03-11T11:17:56;6.90;99.90
35246;DHT22;21379;50.962;6.960;2023-03-11T11:20:25;6.10;99.90
35246;DHT22;21379;50.962;6.960;2023-03-11T11:22:54;5.70;99.90
35246;DHT22;21379;50.962;6.960;2023-03-11T11:25:27;6.00;99.90
35246;DHT22;21379;50.962;6.960;2023-03-11T11:27:57;6.20;99.90
35246;DHT22;21379;50.962;6.960;2023-03-11T11:30:25;6.70;99.90
35246;DHT22;21379;50.962;6.960;2023-03-11T11:32:52;6.90;99.90
35246;DHT22;21379;50.962;6.960;2023-03-11T11:35:21;6.60;99.90
35246;DHT22;21379;50.962;6.960;2023-03-11T11:37:50;6.60;99.90
35246;DHT22;21379;50.962;6.960;2023-03-11T11:40:24;6.20;99.90
35246;DHT22;21379;50.962;6.960;2023-03-11T11:42:56;6.10;99.90
35246;DHT22;21379;50.962;6.960;2023-03-11T11:45:31;6.10;99.90
35246;DHT22;21379;50.962;6.960;2023-03-11T11:48:04;6.10;99.90
35246;DHT22;21379;50.962;6.960;2023-03-11T11:50:36;6.10;99.90
35246;DHT22;21379;50.962;6.960;2023-03-11T11:53:14;6.10;99.90
35246;DHT22;21379;50.962;6.960;2023-03-11T11:55:47;5.60;99.90
35246;DHT22;21379;50.962;6.960;2023-03-11T11:58:16;5.70;99.90
35246;DHT22;21379;50.962;6.960;2023-03-11T12:00:50;6.00;99.90
35246;DHT22;21379;50.962;6.960;2023-03-11T12:03:43;5.80;99.90
35246;DHT22;21379;50.962;6.960;2023-03-11T12:06:18;5.80;99.90
35246;DHT22;21379;50.962;6.960;2023-03-11T12:08:52;5.80;99.90
35246;DHT22;21379;50.962;6.960;2023-03-11T12:11:30;5.80;99.90
35246;DHT22;21379;50.962;6.960;2023-03-11T12:14:11;5.90;99.90
35246;DHT22;21379;50.962;6.960;2023-03-11T12:16:42;6.10;99.90
35246;DHT22;21379;50.962;6.960;2023-03-11T12:19:22;6.40;99.90
35246;DHT22;21379;50.962;6.960;2023-03-11T12:25:00;6.60;99.90
35246;DHT22;21379;50.962;6.960;2023-03-11T12:27:32;6.60;99.90
35246;DHT22;21379;50.962;6.960;2023-03-11T12:30:04;6.50;99.90
35246;DHT22;21379;50.962;6.960;2023-03-11T12:32:34;6.70;99.90
35246;DHT22;21379;50.962;6.960;2023-03-11T12:35:09;6.10;99.90
35246;DHT22;21379;50.962;6.960;2023-03-11T12:37:41;6.30;99.90
35246;DHT22;21379;50.962;6.960;2023-03-11T12:46:10;5.90;99.90
35246;DHT22;21379;50.962;6.960;2023-03-11T12:48:42;6.00;99.90
35246;DHT22;21379;50.962;6.960;2023-03-11T12:51:37;5.90;99.90
35246;DHT22;21379;50.962;6.960;2023-03-11T12:54:26;6.10;99.90
35246;DHT22;21379;50.962;6.960;2023-03-11T12:56:55;5.90;99.90
35246;DHT22;21379;50.962;6.960;2023-03-11T12:59:48;6.20;99.90
35246;DHT22;21379;50.962;6.960;2023-03-11T13:02:35;6.70;99.90
35246;DHT22;21379;50.962;6.960;2023-03-11T13:05:12;6.40;99.90
35246;DHT22;21379;50.962;6.960;2023-03-11T13:07:46;6.70;99.90
35246;DHT22;21379;50.962;6.960;2023-03-11T13:10:34;7.00;99.90
35246;DHT22;21379;50.962;6.960;2023-03-11T13:13:01;6.70;99.90
35246;DHT22;21379;50.962;6.960;2023-03-11T13:15:32;6.80;99.90
35246;DHT22;21379;50.962;6.960;2023-03-11T13:18:03;6.90;99.90
35246;DHT22;21379;50.962;6.960;2023-03-11T13:20:46;7.10;99.90
35246;DHT22;21379;50.962;6.960;2023-03-11T13:23:32;7.30;99.90
35246;DHT22;21379;50.962;6.960;2023-03-11T13:26:33;7.30;99.90
35246;DHT22;21379;50.962;6.960;2023-03-11T13:29:21;7.10;99.90
35246;DHT22;21379;50.962;6.960;2023-03-11T13:32:03;6.80;99.90
35246;DHT22;21379;50.962;6.960;2023-03-11T13:34:39;6.50;99.90
35246;DHT22;21379;50.962;6.960;2023-03-11T13:37:22;6.80;99.90
35246;DHT22;21379;50.962;6.960;2023-03-11T13:39:58;7.40;99.90
35246;DHT22;21379;50.962;6.960;2023-03-11T13:42:28;7.30;99.90
35246;DHT22;21379;50.962;6.960;2023-03-11T13:44:56;7.00;99.90
35246;DHT22;21379;50.962;6.960;2023-03-11T13:47:24;7.20;99.90
35246;DHT22;21379;50.962;6.960;2023-03-11T13:49:58;8.20;99.90
35246;DHT22;21379;50.962;6.960;2023-03-11T13:52:29;8.10;99.90
35246;DHT22;21379;50.962;6.960;2023-03-11T13:55:00;8.60;99.90
35246;DHT22;21379;50.962;6.960;2023-03-11T13:57:29;8.90;99.90
35246;DHT22;21379;50.962;6.960;2023-03-11T13:59:57;9.20;99.90
35246;DHT22;21379;50.962;6.960;2023-03-11T14:02:25;10.40;99.90
35246;DHT22;21379;50.962;6.960;2023-03-11T14:05:01;10.70;99.90
35246;DHT22;21379;50.962;6.960;2023-03-11T14:07:29;9.60;99.80
35246;DHT22;21379;50.962;6.960;2023-03-11T14:10:15;9.40;99.90
35246;DHT22;21379;50.962;6.960;2023-03-11T14:12:42;9.40;99.90
35246;DHT22;21379;50.962;6.960;2023-03-11T14:15:12;10.10;99.90
35246;DHT22;21379;50.962;6.960;2023-03-11T14:17:41;9.40;99.90
35246;DHT22;21379;50.962;6.960;2023-03-11T14:20:13;10.10;99.90
35246;DHT22;21379;50.962;6.960;2023-03-11T14:22:43;10.30;99.90
35246;DHT22;21379;50.962;6.960;2023-03-11T14:25:16;8.50;99.90
35246;DHT22;21379;50.962;6.960;2023-03-11T14:27:50;8.20;99.90
35246;DHT22;21379;50.962;6.960;2023-03-11T14:30:24;7.80;99.90
35246;DHT22;21379;50.962;6.960;2023-03-11T14:32:56;7.20;99.90
35246;DHT22;21379;50.962;6.960;2023-03-11T14:35:24;7.50;99.90
35246;DHT22;21379;50.962;6.960;2023-03-11T14:37:51;7.90;99.90
35246;DHT22;21379;50.962;6.960;2023-03-11T14:40:22;8.30;99.90
35246;DHT22;21379;50.962;6.960;2023-03-11T14:42:50;8.10;99.90
35246;DHT22;21379;50.962;6.960;2023-03-11T14:45:21;7.50;99.90
35246;DHT22;21379;50.962;6.960;2023-03-11T14:47:53;7.50;99.90
35246;DHT22;21379;50.962;6.960;2023-03-11T14:50:24;7.60;99.90
35246;DHT22;21379;50.962;6.960;2023-03-11T14:52:54;8.00;99.90
35246;DHT22;21379;50.962;6.960;2023-03-11T14:55:28;7.70;99.90
35246;DHT22;21379;50.962;6.960;2023-03-11T14:57:59;7.40;99.90
35246;DHT22;21379;50.962;6.960;2023-03-11T15:00:31;7.10;99.90
35246;DHT22;21379;50.962;6.960;2023-03-11T15:03:05;6.80;99.90
35246;DHT22;21379;50.962;6.960;2023-03-11T15:05:43;6.40;99.90
35246;DHT22;21379;50.962;6.960;2023-03-11T15:08:11;6.20;99.90
35246;DHT22;21379;50.962;6.960;2023-03-11T15:10:38;6.30;99.90
35246;DHT22;21379;50.962;6.960;2023-03-11T15:13:08;6.20;99.90
35246;DHT22;21379;50.962;6.960;2023-03-11T15:15:35;6.20;99.90
35246;DHT22;21379;50.962;6.960;2023-03-11T15:18:14;6.20;99.90
35246;DHT22;21379;50.962;6.960;2023-03-11T15:20:44;6.20;99.90
35246;DHT22;21379;50.962;6.960;2023-03-11T15:23:20;6.20;99.90
35246;DHT22;21379;50.962;6.960;2023-03-11T15:25:48;6.20;99.90
35246;DHT22;21379;50.962;6.960;2023-03-11T15:28:22;6.30;99.90
35246;DHT22;21379;50.962;6.960;2023-03-11T15:30:50;6.40;99.90
35246;DHT22;21379;50.962;6.960;2023-03-11T15:33:22;6.30;99.90
35246;DHT22;21379;50.962;6.960;2023-03-11T15:35:50;6.40;99.90
35246;DHT22;21379;50.962;6.960;2023-03-11T15:38:20;6.20;99.90
35246;DHT22;21379;50.962;6.960;2023-03-11T15:40:52;6.10;99.90
35246;DHT22;21379;50.962;6.960;2023-03-11T15:43:22;6.10;99.90
35246;DHT22;21379;50.962;6.960;2023-03-11T15:45:51;6.00;99.90
35246;DHT22;21379;50.962;6.960;2023-03-11T15:48:19;6.10;99.90
35246;DHT22;21379;50.962;6.960;2023-03-11T15:50:47;6.10;99.90
35246;DHT22;21379;50.962;6.960;2023-03-11T15:53:16;6.10;99.90
35246;DHT22;21379;50.962;6.960;2023-03-11T15:55:43;6.10;99.90
35246;DHT22;21379;50.962;6.960;2023-03-11T15:58:11;6.00;99.90
35246;DHT22;21379;50.962;6.960;2023-03-11T16:00:42;5.90;99.90
35246;DHT22;21379;50.962;6.960;2023-03-11T16:03:10;6.00;99.90
35246;DHT22;21379;50.962;6.960;2023-03-11T16:05:37;6.00;99.90
35246;DHT22;21379;50.962;6.960;2023-03-11T16:08:04;6.10;99.90
35246;DHT22;21379;50.962;6.960;2023-03-11T16:10:32;6.10;99.90